sensor_id;sensor_type;location;lat;lon;timestamp;P1;durP1;ratioP1;P2;durP2;ratioP2
4646;SDS011;2336;47.822;7.564;2022-11-21T00:00:27;4.63;;;2.20;;
4646;SDS011;2336;47.822;7.564;2022-11-21T00:02:57;1.87;;;1.77;;
4646;SDS011;2336;47.822;7.564;2022-11-21T00:05:25;1.57;;;1.30;;
4646;SDS011;2336;47.822;7.564;2022-11-21T00:07:51;2.23;;;1.73;;
4646;SDS011;2336;47.822;7.564;2022-11-21T00:10:19;3.93;;;1.67;;
4646;SDS011;2336;47.822;7.564;2022-11-21T00:12:46;3.93;;;1.53;;
4646;SDS011;2336;47.822;7.564;2022-11-21T00:15:12;4.00;;;1.77;;
4646;SDS011;2336;47.822;7.564;2022-11-21T00:17:39;5.17;;;1.60;;
4646;SDS011;2336;47.822;7.564;2022-11-21T00:20:08;2.30;;;1.53;;
4646;SDS011;2336;47.822;7.564;2022-11-21T00:22:36;7.13;;;2.00;;
4646;SDS011;2336;47.822;7.564;2022-11-21T00:25:03;2.83;;;1.63;;
4646;SDS011;2336;47.822;7.564;2022-11-21T00:27:30;1.83;;;1.63;;
4646;SDS011;2336;47.822;7.564;2022-11-21T00:29:57;3.87;;;1.83;;
4646;SDS011;2336;47.822;7.564;2022-11-21T00:32:24;3.70;;;1.57;;
4646;SDS011;2336;47.822;7.564;2022-11-21T00:34:50;4.13;;;2.70;;
4646;SDS011;2336;47.822;7.564;2022-11-21T00:37:18;36.60;;;22.97;;
4646;SDS011;2336;47.822;7.564;2022-11-21T00:39:45;19.87;;;11.27;;
4646;SDS011;2336;47.822;7.564;2022-11-21T00:42:12;10.03;;;7.03;;
4646;SDS011;2336;47.822;7.564;2022-11-21T00:44:39;20.87;;;11.30;;
4646;SDS011;2336;47.822;7.564;2022-11-21T00:47:06;3.70;;;1.90;;
4646;SDS011;2336;47.822;7.564;2022-11-21T00:49:33;12.50;;;7.33;;
4646;SDS011;2336;47.822;7.564;2022-11-21T00:51:59;4.20;;;3.80;;
4646;SDS011;2336;47.822;7.564;2022-11-21T00:54:27;8.20;;;5.20;;
4646;SDS011;2336;47.822;7.564;2022-11-21T00:56:54;3.90;;;2.27;;
4646;SDS011;2336;47.822;7.564;2022-11-21T00:59:21;6.10;;;4.20;;
4646;SDS011;2336;47.822;7.564;2022-11-21T01:01:47;11.50;;;6.50;;
4646;SDS011;2336;47.822;7.564;2022-11-21T01:04:14;4.33;;;2.90;;
4646;SDS011;2336;47.822;7.564;2022-11-21T01:06:41;9.47;;;1.87;;
4646;SDS011;2336;47.822;7.564;2022-11-21T01:09:08;5.50;;;2.20;;
4646;SDS011;2336;47.822;7.564;2022-11-21T01:11:36;2.53;;;1.67;;
4646;SDS011;2336;47.822;7.564;2022-11-21T01:14:03;5.23;;;1.60;;
4646;SDS011;2336;47.822;7.564;2022-11-21T01:16:30;2.20;;;1.43;;
4646;SDS011;2336;47.822;7.564;2022-11-21T01:18:57;3.73;;;1.70;;
4646;SDS011;2336;47.822;7.564;2022-11-21T01:21:24;4.40;;;1.93;;
4646;SDS011;2336;47.822;7.564;2022-11-21T01:23:53;3.87;;;2.10;;
4646;SDS011;2336;47.822;7.564;2022-11-21T01:26:20;5.63;;;1.67;;
4646;SDS011;2336;47.822;7.564;2022-11-21T01:28:50;3.63;;;1.33;;
4646;SDS011;2336;47.822;7.564;2022-11-21T01:31:19;2.80;;;1.90;;
4646;SDS011;2336;47.822;7.564;2022-11-21T01:33:47;2.10;;;1.43;;
4646;SDS011;2336;47.822;7.564;2022-11-21T01:36:15;3.40;;;1.30;;
4646;SDS011;2336;47.822;7.564;2022-11-21T01:38:44;4.77;;;1.60;;
4646;SDS011;2336;47.822;7.564;2022-11-21T01:41:12;2.73;;;1.67;;
4646;SDS011;2336;47.822;7.564;2022-11-21T01:43:40;2.57;;;1.50;;
4646;SDS011;2336;47.822;7.564;2022-11-21T01:46:12;7.00;;;2.07;;
4646;SDS011;2336;47.822;7.564;2022-11-21T01:48:41;8.17;;;1.30;;
4646;SDS011;2336;47.822;7.564;2022-11-21T01:51:14;6.00;;;1.40;;
4646;SDS011;2336;47.822;7.564;2022-11-21T01:53:47;4.27;;;1.53;;
4646;SDS011;2336;47.822;7.564;2022-11-21T01:56:19;3.60;;;1.50;;
4646;SDS011;2336;47.822;7.564;2022-11-21T01:58:46;4.37;;;1.70;;
4646;SDS011;2336;47.822;7.564;2022-11-21T02:01:16;2.80;;;1.53;;
4646;SDS011;2336;47.822;7.564;2022-11-21T02:03:43;3.97;;;1.43;;
4646;SDS011;2336;47.822;7.564;2022-11-21T02:06:12;5.50;;;2.10;;
4646;SDS011;2336;47.822;7.564;2022-11-21T02:08:39;6.10;;;1.73;;
4646;SDS011;2336;47.822;7.564;2022-11-21T02:11:10;2.87;;;1.27;;
4646;SDS011;2336;47.822;7.564;2022-11-21T02:13:41;12.77;;;4.10;;
4646;SDS011;2336;47.822;7.564;2022-11-21T02:16:08;9.07;;;6.90;;
4646;SDS011;2336;47.822;7.564;2022-11-21T02:18:36;9.80;;;5.30;;
4646;SDS011;2336;47.822;7.564;2022-11-21T02:21:05;4.43;;;1.73;;
4646;SDS011;2336;47.822;7.564;2022-11-21T02:23:39;8.00;;;1.63;;
4646;SDS011;2336;47.822;7.564;2022-11-21T02:26:11;4.37;;;1.33;;
4646;SDS011;2336;47.822;7.564;2022-11-21T02:28:38;3.60;;;1.30;;
4646;SDS011;2336;47.822;7.564;2022-11-21T02:31:05;17.03;;;8.27;;
4646;SDS011;2336;47.822;7.564;2022-11-21T02:33:31;3.10;;;2.80;;
4646;SDS011;2336;47.822;7.564;2022-11-21T02:35:59;6.90;;;2.27;;
4646;SDS011;2336;47.822;7.564;2022-11-21T02:38:28;2.83;;;1.53;;
4646;SDS011;2336;47.822;7.564;2022-11-21T02:40:59;9.27;;;1.90;;
4646;SDS011;2336;47.822;7.564;2022-11-21T02:43:32;3.57;;;1.63;;
4646;SDS011;2336;47.822;7.564;2022-11-21T02:46:04;5.00;;;1.77;;
4646;SDS011;2336;47.822;7.564;2022-11-21T02:48:31;5.17;;;1.30;;
4646;SDS011;2336;47.822;7.564;2022-11-21T02:50:58;1.60;;;1.07;;
4646;SDS011;2336;47.822;7.564;2022-11-21T02:53:25;2.07;;;1.50;;
4646;SDS011;2336;47.822;7.564;2022-11-21T02:55:52;1.33;;;1.23;;
4646;SDS011;2336;47.822;7.564;2022-11-21T02:58:19;4.23;;;1.83;;
4646;SDS011;2336;47.822;7.564;2022-11-21T03:00:47;7.73;;;1.50;;
4646;SDS011;2336;47.822;7.564;2022-11-21T03:03:14;4.80;;;1.17;;
4646;SDS011;2336;47.822;7.564;2022-11-21T03:05:40;1.47;;;1.33;;
4646;SDS011;2336;47.822;7.564;2022-11-21T03:08:08;4.07;;;1.13;;
4646;SDS011;2336;47.822;7.564;2022-11-21T03:10:35;4.83;;;2.07;;
4646;SDS011;2336;47.822;7.564;2022-11-21T03:13:02;1.67;;;1.20;;
4646;SDS011;2336;47.822;7.564;2022-11-21T03:15:30;4.53;;;1.43;;
4646;SDS011;2336;47.822;7.564;2022-11-21T03:18:00;4.63;;;1.10;;
4646;SDS011;2336;47.822;7.564;2022-11-21T03:20:28;1.10;;;1.10;;
4646;SDS011;2336;47.822;7.564;2022-11-21T03:22:55;1.10;;;1.10;;
4646;SDS011;2336;47.822;7.564;2022-11-21T03:25:22;5.77;;;1.60;;
4646;SDS011;2336;47.822;7.564;2022-11-21T03:27:49;1.17;;;1.00;;
4646;SDS011;2336;47.822;7.564;2022-11-21T03:30:17;1.37;;;0.90;;
4646;SDS011;2336;47.822;7.564;2022-11-21T03:32:44;1.37;;;1.23;;
4646;SDS011;2336;47.822;7.564;2022-11-21T03:35:13;3.90;;;3.60;;
4646;SDS011;2336;47.822;7.564;2022-11-21T03:37:40;13.80;;;10.27;;
4646;SDS011;2336;47.822;7.564;2022-11-21T03:40:07;9.17;;;7.33;;
4646;SDS011;2336;47.822;7.564;2022-11-21T03:42:34;1.67;;;1.30;;
4646;SDS011;2336;47.822;7.564;2022-11-21T03:45:01;2.70;;;1.50;;
4646;SDS011;2336;47.822;7.564;2022-11-21T03:47:29;2.00;;;1.10;;
4646;SDS011;2336;47.822;7.564;2022-11-21T03:49:55;3.97;;;1.80;;
4646;SDS011;2336;47.822;7.564;2022-11-21T03:52:23;1.27;;;0.90;;
4646;SDS011;2336;47.822;7.564;2022-11-21T03:54:50;2.90;;;1.40;;
4646;SDS011;2336;47.822;7.564;2022-11-21T03:57:17;1.73;;;1.20;;
4646;SDS011;2336;47.822;7.564;2022-11-21T03:59:44;1.90;;;0.93;;
4646;SDS011;2336;47.822;7.564;2022-11-21T04:02:10;2.60;;;1.50;;
4646;SDS011;2336;47.822;7.564;2022-11-21T04:04:37;3.13;;;1.70;;
4646;SDS011;2336;47.822;7.564;2022-11-21T04:07:04;2.17;;;1.10;;
4646;SDS011;2336;47.822;7.564;2022-11-21T04:09:32;3.40;;;1.37;;
4646;SDS011;2336;47.822;7.564;2022-11-21T04:11:59;5.00;;;1.90;;
4646;SDS011;2336;47.822;7.564;2022-11-21T04:14:25;3.03;;;1.20;;
4646;SDS011;2336;47.822;7.564;2022-11-21T04:16:52;2.80;;;1.60;;
4646;SDS011;2336;47.822;7.564;2022-11-21T04:19:19;7.47;;;2.60;;
4646;SDS011;2336;47.822;7.564;2022-11-21T04:21:46;2.87;;;1.60;;
4646;SDS011;2336;47.822;7.564;2022-11-21T04:24:12;3.70;;;1.57;;
4646;SDS011;2336;47.822;7.564;2022-11-21T04:26:40;4.53;;;1.50;;
4646;SDS011;2336;47.822;7.564;2022-11-21T04:29:07;2.50;;;1.77;;
4646;SDS011;2336;47.822;7.564;2022-11-21T04:31:34;4.93;;;2.07;;
4646;SDS011;2336;47.822;7.564;2022-11-21T04:34:01;4.57;;;1.87;;
4646;SDS011;2336;47.822;7.564;2022-11-21T04:36:28;4.70;;;1.30;;
4646;SDS011;2336;47.822;7.564;2022-11-21T04:38:54;8.27;;;2.20;;
4646;SDS011;2336;47.822;7.564;2022-11-21T04:41:21;5.00;;;1.37;;
4646;SDS011;2336;47.822;7.564;2022-11-21T04:43:49;2.23;;;1.23;;
4646;SDS011;2336;47.822;7.564;2022-11-21T04:46:16;5.13;;;1.50;;
4646;SDS011;2336;47.822;7.564;2022-11-21T04:48:43;2.90;;;1.60;;
4646;SDS011;2336;47.822;7.564;2022-11-21T04:51:10;4.40;;;1.90;;
4646;SDS011;2336;47.822;7.564;2022-11-21T04:53:37;3.17;;;1.67;;
4646;SDS011;2336;47.822;7.564;2022-11-21T04:56:04;2.70;;;2.00;;
4646;SDS011;2336;47.822;7.564;2022-11-21T04:58:31;3.87;;;1.33;;
4646;SDS011;2336;47.822;7.564;2022-11-21T05:01:05;3.20;;;1.50;;
4646;SDS011;2336;47.822;7.564;2022-11-21T05:03:32;4.47;;;1.43;;
4646;SDS011;2336;47.822;7.564;2022-11-21T05:05:59;3.70;;;1.43;;
4646;SDS011;2336;47.822;7.564;2022-11-21T05:08:26;2.40;;;1.40;;
4646;SDS011;2336;47.822;7.564;2022-11-21T05:10:52;3.73;;;2.00;;
4646;SDS011;2336;47.822;7.564;2022-11-21T05:13:36;5.57;;;1.53;;
4646;SDS011;2336;47.822;7.564;2022-11-21T05:16:05;3.87;;;2.00;;
4646;SDS011;2336;47.822;7.564;2022-11-21T05:18:32;4.40;;;1.87;;
4646;SDS011;2336;47.822;7.564;2022-11-21T05:20:59;5.27;;;2.00;;
4646;SDS011;2336;47.822;7.564;2022-11-21T05:23:26;20.67;;;13.50;;
4646;SDS011;2336;47.822;7.564;2022-11-21T05:25:53;8.43;;;4.50;;
4646;SDS011;2336;47.822;7.564;2022-11-21T05:28:20;3.73;;;2.20;;
4646;SDS011;2336;47.822;7.564;2022-11-21T05:30:46;2.33;;;1.60;;
4646;SDS011;2336;47.822;7.564;2022-11-21T05:33:14;3.90;;;1.60;;
4646;SDS011;2336;47.822;7.564;2022-11-21T05:35:41;4.17;;;1.20;;
4646;SDS011;2336;47.822;7.564;2022-11-21T05:38:08;2.70;;;1.30;;
4646;SDS011;2336;47.822;7.564;2022-11-21T05:40:35;3.90;;;1.00;;
4646;SDS011;2336;47.822;7.564;2022-11-21T05:43:01;1.93;;;1.20;;
4646;SDS011;2336;47.822;7.564;2022-11-21T05:45:47;1.27;;;0.80;;
4646;SDS011;2336;47.822;7.564;2022-11-21T05:48:16;2.10;;;2.00;;
4646;SDS011;2336;47.822;7.564;2022-11-21T05:50:45;2.80;;;2.30;;
4646;SDS011;2336;47.822;7.564;2022-11-21T05:53:13;2.80;;;2.17;;
4646;SDS011;2336;47.822;7.564;2022-11-21T05:55:40;2.53;;;1.27;;
4646;SDS011;2336;47.822;7.564;2022-11-21T05:58:06;2.47;;;1.47;;
4646;SDS011;2336;47.822;7.564;2022-11-21T06:00:34;2.53;;;1.30;;
4646;SDS011;2336;47.822;7.564;2022-11-21T06:03:02;0.80;;;0.80;;
4646;SDS011;2336;47.822;7.564;2022-11-21T06:05:48;0.93;;;0.90;;
4646;SDS011;2336;47.822;7.564;2022-11-21T06:08:14;4.07;;;1.30;;
4646;SDS011;2336;47.822;7.564;2022-11-21T06:10:41;1.37;;;0.80;;
4646;SDS011;2336;47.822;7.564;2022-11-21T06:13:08;2.00;;;1.10;;
4646;SDS011;2336;47.822;7.564;2022-11-21T06:15:46;1.20;;;1.20;;
4646;SDS011;2336;47.822;7.564;2022-11-21T06:18:14;3.13;;;1.20;;
4646;SDS011;2336;47.822;7.564;2022-11-21T06:20:41;1.43;;;1.30;;
4646;SDS011;2336;47.822;7.564;2022-11-21T06:23:09;1.33;;;1.23;;
4646;SDS011;2336;47.822;7.564;2022-11-21T06:25:36;3.10;;;1.37;;
4646;SDS011;2336;47.822;7.564;2022-11-21T06:28:03;3.47;;;1.20;;
4646;SDS011;2336;47.822;7.564;2022-11-21T06:30:29;3.23;;;1.10;;
4646;SDS011;2336;47.822;7.564;2022-11-21T06:32:56;2.07;;;0.90;;
4646;SDS011;2336;47.822;7.564;2022-11-21T06:35:23;2.70;;;1.20;;
4646;SDS011;2336;47.822;7.564;2022-11-21T06:37:49;3.30;;;1.13;;
4646;SDS011;2336;47.822;7.564;2022-11-21T06:40:18;1.37;;;1.07;;
4646;SDS011;2336;47.822;7.564;2022-11-21T06:42:44;3.30;;;1.27;;
4646;SDS011;2336;47.822;7.564;2022-11-21T06:45:11;0.97;;;0.90;;
4646;SDS011;2336;47.822;7.564;2022-11-21T06:47:38;5.90;;;1.80;;
4646;SDS011;2336;47.822;7.564;2022-11-21T06:50:05;2.90;;;1.43;;
4646;SDS011;2336;47.822;7.564;2022-11-21T06:52:33;1.43;;;1.30;;
4646;SDS011;2336;47.822;7.564;2022-11-21T06:55:00;4.63;;;1.63;;
4646;SDS011;2336;47.822;7.564;2022-11-21T06:57:29;2.53;;;1.73;;
4646;SDS011;2336;47.822;7.564;2022-11-21T06:59:56;6.77;;;1.90;;
4646;SDS011;2336;47.822;7.564;2022-11-21T07:02:23;4.50;;;2.57;;
4646;SDS011;2336;47.822;7.564;2022-11-21T07:04:51;3.30;;;1.70;;
4646;SDS011;2336;47.822;7.564;2022-11-21T07:07:18;3.67;;;1.73;;
4646;SDS011;2336;47.822;7.564;2022-11-21T07:09:44;3.13;;;1.50;;
4646;SDS011;2336;47.822;7.564;2022-11-21T07:12:12;1.77;;;1.50;;
4646;SDS011;2336;47.822;7.564;2022-11-21T07:14:57;3.43;;;1.63;;
4646;SDS011;2336;47.822;7.564;2022-11-21T07:17:24;3.50;;;1.37;;
4646;SDS011;2336;47.822;7.564;2022-11-21T07:19:51;2.40;;;2.03;;
4646;SDS011;2336;47.822;7.564;2022-11-21T07:22:18;2.30;;;1.30;;
4646;SDS011;2336;47.822;7.564;2022-11-21T07:24:44;3.07;;;2.07;;
4646;SDS011;2336;47.822;7.564;2022-11-21T07:27:11;5.20;;;2.27;;
4646;SDS011;2336;47.822;7.564;2022-11-21T07:29:38;4.70;;;2.77;;
4646;SDS011;2336;47.822;7.564;2022-11-21T07:32:06;5.40;;;2.73;;
4646;SDS011;2336;47.822;7.564;2022-11-21T07:34:33;4.37;;;1.90;;
4646;SDS011;2336;47.822;7.564;2022-11-21T07:37:00;4.30;;;2.13;;
4646;SDS011;2336;47.822;7.564;2022-11-21T07:39:27;5.50;;;2.03;;
4646;SDS011;2336;47.822;7.564;2022-11-21T07:41:54;4.30;;;2.20;;
4646;SDS011;2336;47.822;7.564;2022-11-21T07:44:21;3.47;;;2.03;;
4646;SDS011;2336;47.822;7.564;2022-11-21T07:46:47;5.10;;;2.00;;
4646;SDS011;2336;47.822;7.564;2022-11-21T07:49:15;6.00;;;2.27;;
4646;SDS011;2336;47.822;7.564;2022-11-21T07:51:42;7.47;;;2.87;;
4646;SDS011;2336;47.822;7.564;2022-11-21T07:54:09;5.10;;;2.13;;
4646;SDS011;2336;47.822;7.564;2022-11-21T07:56:36;8.83;;;3.20;;
4646;SDS011;2336;47.822;7.564;2022-11-21T07:59:03;4.90;;;2.60;;
4646;SDS011;2336;47.822;7.564;2022-11-21T08:01:30;4.97;;;2.13;;
4646;SDS011;2336;47.822;7.564;2022-11-21T08:03:57;7.90;;;2.47;;
4646;SDS011;2336;47.822;7.564;2022-11-21T08:06:25;7.60;;;2.40;;
4646;SDS011;2336;47.822;7.564;2022-11-21T08:08:52;5.73;;;2.33;;
4646;SDS011;2336;47.822;7.564;2022-11-21T08:11:19;6.33;;;2.23;;
4646;SDS011;2336;47.822;7.564;2022-11-21T08:13:46;10.17;;;4.23;;
4646;SDS011;2336;47.822;7.564;2022-11-21T08:16:12;31.00;;;15.30;;
4646;SDS011;2336;47.822;7.564;2022-11-21T08:18:39;43.33;;;22.53;;
4646;SDS011;2336;47.822;7.564;2022-11-21T08:21:06;31.13;;;16.80;;
4646;SDS011;2336;47.822;7.564;2022-11-21T08:23:34;17.43;;;9.70;;
4646;SDS011;2336;47.822;7.564;2022-11-21T08:26:01;14.03;;;7.57;;
4646;SDS011;2336;47.822;7.564;2022-11-21T08:28:27;21.33;;;10.23;;
4646;SDS011;2336;47.822;7.564;2022-11-21T08:30:54;34.13;;;18.40;;
4646;SDS011;2336;47.822;7.564;2022-11-21T08:33:21;16.77;;;9.07;;
4646;SDS011;2336;47.822;7.564;2022-11-21T08:35:48;19.60;;;9.63;;
4646;SDS011;2336;47.822;7.564;2022-11-21T08:38:14;56.17;;;29.20;;
4646;SDS011;2336;47.822;7.564;2022-11-21T08:40:42;78.67;;;43.07;;
4646;SDS011;2336;47.822;7.564;2022-11-21T08:43:09;31.77;;;18.60;;
4646;SDS011;2336;47.822;7.564;2022-11-21T08:45:36;21.20;;;6.30;;
4646;SDS011;2336;47.822;7.564;2022-11-21T08:48:07;7.77;;;3.37;;
4646;SDS011;2336;47.822;7.564;2022-11-21T08:50:35;7.37;;;3.40;;
4646;SDS011;2336;47.822;7.564;2022-11-21T08:53:01;9.30;;;3.67;;
4646;SDS011;2336;47.822;7.564;2022-11-21T08:55:28;16.07;;;3.23;;
4646;SDS011;2336;47.822;7.564;2022-11-21T08:57:57;5.87;;;3.10;;
4646;SDS011;2336;47.822;7.564;2022-11-21T09:00:24;9.57;;;3.17;;
4646;SDS011;2336;47.822;7.564;2022-11-21T09:02:51;9.07;;;3.43;;
4646;SDS011;2336;47.822;7.564;2022-11-21T09:05:18;12.97;;;6.70;;
4646;SDS011;2336;47.822;7.564;2022-11-21T09:07:44;20.13;;;12.10;;
4646;SDS011;2336;47.822;7.564;2022-11-21T09:10:12;24.73;;;13.47;;
4646;SDS011;2336;47.822;7.564;2022-11-21T09:12:39;10.97;;;3.67;;
4646;SDS011;2336;47.822;7.564;2022-11-21T09:15:08;10.37;;;3.83;;
4646;SDS011;2336;47.822;7.564;2022-11-21T09:17:53;10.53;;;3.33;;
4646;SDS011;2336;47.822;7.564;2022-11-21T09:20:29;5.23;;;2.60;;
4646;SDS011;2336;47.822;7.564;2022-11-21T09:22:56;9.60;;;3.70;;
4646;SDS011;2336;47.822;7.564;2022-11-21T09:25:22;9.40;;;2.43;;
4646;SDS011;2336;47.822;7.564;2022-11-21T09:27:49;7.70;;;2.97;;
4646;SDS011;2336;47.822;7.564;2022-11-21T09:30:17;3.87;;;2.30;;
4646;SDS011;2336;47.822;7.564;2022-11-21T09:32:44;8.63;;;3.20;;
4646;SDS011;2336;47.822;7.564;2022-11-21T09:35:11;4.00;;;2.00;;
4646;SDS011;2336;47.822;7.564;2022-11-21T09:37:38;8.83;;;2.40;;
4646;SDS011;2336;47.822;7.564;2022-11-21T09:40:05;9.83;;;2.50;;
4646;SDS011;2336;47.822;7.564;2022-11-21T09:42:47;6.90;;;1.97;;
4646;SDS011;2336;47.822;7.564;2022-11-21T09:45:27;3.20;;;2.20;;
4646;SDS011;2336;47.822;7.564;2022-11-21T09:48:00;10.23;;;2.80;;
4646;SDS011;2336;47.822;7.564;2022-11-21T09:50:30;6.43;;;2.97;;
4646;SDS011;2336;47.822;7.564;2022-11-21T09:53:00;7.00;;;3.40;;
4646;SDS011;2336;47.822;7.564;2022-11-21T09:55:35;7.50;;;3.23;;
4646;SDS011;2336;47.822;7.564;2022-11-21T09:58:10;3.43;;;2.40;;
4646;SDS011;2336;47.822;7.564;2022-11-21T10:00:44;7.93;;;3.30;;
4646;SDS011;2336;47.822;7.564;2022-11-21T10:03:11;11.97;;;2.60;;
4646;SDS011;2336;47.822;7.564;2022-11-21T10:05:40;3.87;;;2.87;;
4646;SDS011;2336;47.822;7.564;2022-11-21T10:08:14;12.17;;;3.60;;
4646;SDS011;2336;47.822;7.564;2022-11-21T10:10:55;4.10;;;3.13;;
4646;SDS011;2336;47.822;7.564;2022-11-21T10:13:36;7.70;;;2.33;;
4646;SDS011;2336;47.822;7.564;2022-11-21T10:16:15;7.60;;;2.67;;
4646;SDS011;2336;47.822;7.564;2022-11-21T10:18:54;8.67;;;2.80;;
4646;SDS011;2336;47.822;7.564;2022-11-21T10:21:40;6.67;;;3.33;;
4646;SDS011;2336;47.822;7.564;2022-11-21T10:24:21;3.63;;;2.30;;
4646;SDS011;2336;47.822;7.564;2022-11-21T10:27:00;6.77;;;2.20;;
4646;SDS011;2336;47.822;7.564;2022-11-21T10:29:31;11.17;;;3.53;;
4646;SDS011;2336;47.822;7.564;2022-11-21T10:32:10;8.93;;;1.73;;
4646;SDS011;2336;47.822;7.564;2022-11-21T10:34:45;5.80;;;2.40;;
4646;SDS011;2336;47.822;7.564;2022-11-21T10:37:14;3.33;;;2.57;;
4646;SDS011;2336;47.822;7.564;2022-11-21T10:39:44;11.03;;;2.43;;
4646;SDS011;2336;47.822;7.564;2022-11-21T10:42:15;5.73;;;2.13;;
4646;SDS011;2336;47.822;7.564;2022-11-21T10:44:55;7.27;;;2.67;;
4646;SDS011;2336;47.822;7.564;2022-11-21T10:47:45;4.87;;;2.40;;
4646;SDS011;2336;47.822;7.564;2022-11-21T10:50:24;5.67;;;3.17;;
4646;SDS011;2336;47.822;7.564;2022-11-21T10:53:05;5.37;;;2.00;;
4646;SDS011;2336;47.822;7.564;2022-11-21T10:56:00;4.70;;;2.40;;
4646;SDS011;2336;47.822;7.564;2022-11-21T10:58:33;4.53;;;2.00;;
4646;SDS011;2336;47.822;7.564;2022-11-21T11:01:20;4.23;;;2.20;;
4646;SDS011;2336;47.822;7.564;2022-11-21T11:06:42;5.30;;;2.20;;
4646;SDS011;2336;47.822;7.564;2022-11-21T11:09:20;3.87;;;2.47;;
4646;SDS011;2336;47.822;7.564;2022-11-21T11:15:15;9.97;;;2.33;;
4646;SDS011;2336;47.822;7.564;2022-11-21T11:17:45;3.07;;;1.87;;
4646;SDS011;2336;47.822;7.564;2022-11-21T11:20:27;3.23;;;2.67;;
4646;SDS011;2336;47.822;7.564;2022-11-21T11:22:57;6.73;;;2.93;;
4646;SDS011;2336;47.822;7.564;2022-11-21T11:25:24;7.00;;;1.90;;
4646;SDS011;2336;47.822;7.564;2022-11-21T11:27:51;3.80;;;1.70;;
4646;SDS011;2336;47.822;7.564;2022-11-21T11:30:20;3.90;;;1.70;;
4646;SDS011;2336;47.822;7.564;2022-11-21T11:32:46;4.30;;;2.00;;
4646;SDS011;2336;47.822;7.564;2022-11-21T11:35:19;2.30;;;1.40;;
4646;SDS011;2336;47.822;7.564;2022-11-21T11:37:49;3.70;;;1.87;;
4646;SDS011;2336;47.822;7.564;2022-11-21T11:40:27;5.57;;;1.77;;
4646;SDS011;2336;47.822;7.564;2022-11-21T11:43:01;3.83;;;1.73;;
4646;SDS011;2336;47.822;7.564;2022-11-21T11:46:11;6.50;;;1.70;;
4646;SDS011;2336;47.822;7.564;2022-11-21T11:49:05;2.77;;;1.90;;
4646;SDS011;2336;47.822;7.564;2022-11-21T11:51:37;2.00;;;1.10;;
4646;SDS011;2336;47.822;7.564;2022-11-21T11:54:07;8.03;;;2.27;;
4646;SDS011;2336;47.822;7.564;2022-11-21T11:56:40;1.63;;;1.23;;
4646;SDS011;2336;47.822;7.564;2022-11-21T11:59:10;2.50;;;1.20;;
4646;SDS011;2336;47.822;7.564;2022-11-21T12:01:44;1.53;;;1.43;;
4646;SDS011;2336;47.822;7.564;2022-11-21T12:04:16;2.10;;;1.57;;
4646;SDS011;2336;47.822;7.564;2022-11-21T12:06:45;3.27;;;1.30;;
4646;SDS011;2336;47.822;7.564;2022-11-21T12:09:18;2.90;;;1.43;;
4646;SDS011;2336;47.822;7.564;2022-11-21T12:11:53;1.77;;;1.20;;
4646;SDS011;2336;47.822;7.564;2022-11-21T12:17:44;1.80;;;1.30;;
4646;SDS011;2336;47.822;7.564;2022-11-21T12:20:20;2.10;;;1.67;;
4646;SDS011;2336;47.822;7.564;2022-11-21T12:22:50;3.80;;;2.53;;
4646;SDS011;2336;47.822;7.564;2022-11-21T12:25:20;2.30;;;2.10;;
4646;SDS011;2336;47.822;7.564;2022-11-21T12:27:55;2.80;;;1.50;;
4646;SDS011;2336;47.822;7.564;2022-11-21T12:30:36;2.50;;;1.30;;
4646;SDS011;2336;47.822;7.564;2022-11-21T12:33:17;2.80;;;1.30;;
4646;SDS011;2336;47.822;7.564;2022-11-21T12:35:49;2.43;;;1.23;;
4646;SDS011;2336;47.822;7.564;2022-11-21T12:38:53;1.30;;;1.00;;
4646;SDS011;2336;47.822;7.564;2022-11-21T12:41:30;1.60;;;1.20;;
4646;SDS011;2336;47.822;7.564;2022-11-21T12:44:25;1.40;;;1.00;;
4646;SDS011;2336;47.822;7.564;2022-11-21T12:47:06;2.60;;;1.57;;
4646;SDS011;2336;47.822;7.564;2022-11-21T12:49:45;3.03;;;1.50;;
4646;SDS011;2336;47.822;7.564;2022-11-21T12:52:35;5.47;;;1.50;;
4646;SDS011;2336;47.822;7.564;2022-11-21T12:55:31;1.70;;;1.60;;
4646;SDS011;2336;47.822;7.564;2022-11-21T12:58:04;3.43;;;1.80;;
4646;SDS011;2336;47.822;7.564;2022-11-21T13:03:45;2.23;;;1.47;;
4646;SDS011;2336;47.822;7.564;2022-11-21T13:06:17;3.83;;;1.40;;
4646;SDS011;2336;47.822;7.564;2022-11-21T13:08:47;3.10;;;1.37;;
4646;SDS011;2336;47.822;7.564;2022-11-21T13:11:19;1.50;;;1.40;;
4646;SDS011;2336;47.822;7.564;2022-11-21T13:14:11;2.00;;;1.40;;
4646;SDS011;2336;47.822;7.564;2022-11-21T13:16:47;1.53;;;1.40;;
4646;SDS011;2336;47.822;7.564;2022-11-21T13:19:22;5.80;;;1.90;;
4646;SDS011;2336;47.822;7.564;2022-11-21T13:21:54;2.10;;;1.50;;
4646;SDS011;2336;47.822;7.564;2022-11-21T13:27:24;1.80;;;1.30;;
4646;SDS011;2336;47.822;7.564;2022-11-21T13:30:16;3.07;;;2.53;;
4646;SDS011;2336;47.822;7.564;2022-11-21T13:32:49;3.00;;;2.57;;
4646;SDS011;2336;47.822;7.564;2022-11-21T13:38:30;3.57;;;2.03;;
4646;SDS011;2336;47.822;7.564;2022-11-21T13:40:58;3.50;;;2.70;;
4646;SDS011;2336;47.822;7.564;2022-11-21T13:43:42;2.53;;;2.33;;
4646;SDS011;2336;47.822;7.564;2022-11-21T13:46:09;2.33;;;2.23;;
4646;SDS011;2336;47.822;7.564;2022-11-21T13:49:01;3.83;;;2.83;;
4646;SDS011;2336;47.822;7.564;2022-11-21T13:51:45;4.13;;;2.20;;
4646;SDS011;2336;47.822;7.564;2022-11-21T13:57:40;3.23;;;3.00;;
4646;SDS011;2336;47.822;7.564;2022-11-21T14:00:20;2.40;;;2.20;;
4646;SDS011;2336;47.822;7.564;2022-11-21T14:06:22;2.97;;;2.03;;
4646;SDS011;2336;47.822;7.564;2022-11-21T14:09:05;2.47;;;2.27;;
4646;SDS011;2336;47.822;7.564;2022-11-21T14:11:47;2.47;;;2.27;;
4646;SDS011;2336;47.822;7.564;2022-11-21T14:14:25;3.30;;;3.00;;
4646;SDS011;2336;47.822;7.564;2022-11-21T14:16:58;4.27;;;2.90;;
4646;SDS011;2336;47.822;7.564;2022-11-21T14:19:40;1.77;;;1.67;;
4646;SDS011;2336;47.822;7.564;2022-11-21T14:22:13;3.80;;;2.00;;
4646;SDS011;2336;47.822;7.564;2022-11-21T14:24:49;1.70;;;1.60;;
4646;SDS011;2336;47.822;7.564;2022-11-21T14:27:20;2.37;;;1.80;;
4646;SDS011;2336;47.822;7.564;2022-11-21T14:29:51;5.83;;;2.80;;
4646;SDS011;2336;47.822;7.564;2022-11-21T14:32:24;5.67;;;2.30;;
4646;SDS011;2336;47.822;7.564;2022-11-21T14:34:52;5.03;;;1.97;;
4646;SDS011;2336;47.822;7.564;2022-11-21T14:37:33;3.10;;;1.67;;
4646;SDS011;2336;47.822;7.564;2022-11-21T14:40:02;3.53;;;1.80;;
4646;SDS011;2336;47.822;7.564;2022-11-21T14:42:33;2.50;;;1.67;;
4646;SDS011;2336;47.822;7.564;2022-11-21T14:45:05;1.63;;;1.20;;
4646;SDS011;2336;47.822;7.564;2022-11-21T14:47:32;2.40;;;2.23;;
4646;SDS011;2336;47.822;7.564;2022-11-21T14:49:59;5.83;;;2.00;;
4646;SDS011;2336;47.822;7.564;2022-11-21T14:52:28;3.40;;;2.30;;
4646;SDS011;2336;47.822;7.564;2022-11-21T14:54:59;2.93;;;2.27;;
4646;SDS011;2336;47.822;7.564;2022-11-21T14:57:27;4.73;;;2.30;;
4646;SDS011;2336;47.822;7.564;2022-11-21T14:59:58;2.80;;;2.07;;
4646;SDS011;2336;47.822;7.564;2022-11-21T15:02:25;3.30;;;2.70;;
4646;SDS011;2336;47.822;7.564;2022-11-21T15:04:59;2.93;;;2.63;;
4646;SDS011;2336;47.822;7.564;2022-11-21T15:07:27;2.20;;;2.10;;
4646;SDS011;2336;47.822;7.564;2022-11-21T15:10:02;6.10;;;5.07;;
4646;SDS011;2336;47.822;7.564;2022-11-21T15:12:30;6.73;;;4.23;;
4646;SDS011;2336;47.822;7.564;2022-11-21T15:15:01;4.27;;;3.90;;
4646;SDS011;2336;47.822;7.564;2022-11-21T15:17:31;4.60;;;3.83;;
4646;SDS011;2336;47.822;7.564;2022-11-21T15:20:14;23.93;;;17.10;;
4646;SDS011;2336;47.822;7.564;2022-11-21T15:22:45;37.20;;;24.97;;
4646;SDS011;2336;47.822;7.564;2022-11-21T15:25:16;31.93;;;20.73;;
4646;SDS011;2336;47.822;7.564;2022-11-21T15:27:44;24.37;;;16.57;;
4646;SDS011;2336;47.822;7.564;2022-11-21T15:30:24;13.37;;;8.50;;
4646;SDS011;2336;47.822;7.564;2022-11-21T15:33:02;7.60;;;5.30;;
4646;SDS011;2336;47.822;7.564;2022-11-21T15:35:38;4.00;;;2.23;;
4646;SDS011;2336;47.822;7.564;2022-11-21T15:38:21;6.50;;;2.40;;
4646;SDS011;2336;47.822;7.564;2022-11-21T15:40:58;5.63;;;2.93;;
4646;SDS011;2336;47.822;7.564;2022-11-21T15:43:36;4.13;;;3.73;;
4646;SDS011;2336;47.822;7.564;2022-11-21T15:46:11;3.90;;;3.60;;
4646;SDS011;2336;47.822;7.564;2022-11-21T15:48:40;4.77;;;3.30;;
4646;SDS011;2336;47.822;7.564;2022-11-21T15:51:08;7.80;;;5.33;;
4646;SDS011;2336;47.822;7.564;2022-11-21T15:53:35;10.57;;;7.47;;
4646;SDS011;2336;47.822;7.564;2022-11-21T15:56:04;9.73;;;7.70;;
4646;SDS011;2336;47.822;7.564;2022-11-21T15:58:31;14.30;;;7.67;;